Dellwood, Wisconsin
Current Conditions -  °F | °C
As of 11:58 AM on Friday 31 Oct 2014 (Local Time) from KVOK Reporting Station
Broken Clouds Broken Clouds  
Wind Chill: 29°   Ceiling: 4200
Heat Index: 37°   Visibility: 10mi
Dew Point: 21°   Wind: 15mph
Humidity: 52%   Direction: 350°N
Pressure: 30.41"   Gusts: 26mph
Location:  43.98°N, 89.94°W
Report Text: KVOK 311658Z 35013G23KT 10SM BKN042 03/M06 A3041 RMK AO2A PK WND 01029/25 SLP310
Loading
Personal Weather Stations






























Interactive Weather Map
Tropical Storm Tracking
New forecast layout! Learn more

10-Day Weather Forecast

Advertisements
Track Severe Weather on mobile